createdAt,value
2022-12-11T00:00:25.904Z,99628.69
2022-12-11T00:01:29.219Z,99638.47
2022-12-11T00:02:31.959Z,99634.06
2022-12-11T00:03:33.771Z,99645.88
2022-12-11T00:04:36.717Z,99647.72
2022-12-11T00:05:40.870Z,99650.53
2022-12-11T00:06:42.824Z,99644.47
2022-12-11T00:07:45.600Z,99646.56
2022-12-11T00:08:47.778Z,99650.13
2022-12-11T00:09:50.727Z,99640.31
2022-12-11T00:10:52.500Z,99642.03
2022-12-11T00:11:55.496Z,99643.88
2022-12-11T00:12:57.194Z,99638.50
2022-12-11T00:13:59.895Z,99643.03
2022-12-11T00:15:01.670Z,99642.03
2022-12-11T00:16:04.465Z,99642.88
2022-12-11T00:17:08.543Z,99647.56
2022-12-11T00:18:13.466Z,99640.31
2022-12-11T00:19:16.118Z,99642.34
2022-12-11T00:20:18.070Z,99642.34
2022-12-11T00:21:20.726Z,99645.88
2022-12-11T00:22:22.426Z,99650.25
2022-12-11T00:23:25.137Z,99648.28
2022-12-11T00:24:27.830Z,99648.13
2022-12-11T00:25:29.492Z,99649.84
2022-12-11T00:26:32.227Z,99642.59
2022-12-11T00:27:33.919Z,99642.44
2022-12-11T00:28:37.135Z,99642.31
2022-12-11T00:29:41.976Z,99648.56
2022-12-11T00:30:45.034Z,99648.38
2022-12-11T00:31:46.904Z,99651.81
2022-12-11T00:32:52.537Z,99646.28
2022-12-11T00:33:54.242Z,99642.56
2022-12-11T00:34:56.958Z,99646.97
2022-12-11T00:35:58.639Z,99641.59
2022-12-11T00:37:01.344Z,99648.53
2022-12-11T00:38:03.245Z,99650.22
2022-12-11T00:39:06.381Z,99652.78
2022-12-11T00:40:09.250Z,99657.03
2022-12-11T00:41:12.056Z,99655.03
2022-12-11T00:42:13.770Z,99651.34
2022-12-11T00:43:17.063Z,99652.88
2022-12-11T00:44:18.833Z,99654.59
2022-12-11T00:45:21.520Z,99649.91
2022-12-11T00:46:23.353Z,99650.59
2022-12-11T00:47:26.066Z,99650.47
2022-12-11T00:48:29.212Z,99647.63
2022-12-11T00:49:31.908Z,99649.34
2022-12-11T00:50:34.151Z,99649.03
2022-12-11T00:51:36.807Z,99650.75
2022-12-11T00:52:38.845Z,99656.81
2022-12-11T00:53:41.630Z,99650.44
2022-12-11T00:54:43.334Z,99652.16
2022-12-11T00:55:45.968Z,99653.69
2022-12-11T00:56:47.618Z,99649.16
2022-12-11T00:57:52.742Z,99652.56
2022-12-11T00:58:55.486Z,99650.72
2022-12-11T00:59:57.223Z,99655.13
2022-12-11T01:01:07.188Z,99654.94
2022-12-11T01:02:08.968Z,99653.97
2022-12-11T01:03:12.174Z,99657.66
2022-12-11T01:04:15.294Z,99654.09
2022-12-11T01:05:18.428Z,99644.34
2022-12-11T01:06:24.254Z,99653.09
2022-12-11T01:07:26.066Z,99653.97
2022-12-11T01:08:31.681Z,99652.25
2022-12-11T01:09:54.282Z,99650.84
2022-12-11T01:11:02.459Z,99651.28
2022-12-11T01:12:05.442Z,99647.75
2022-12-11T01:13:07.220Z,99654.97
2022-12-11T01:14:10.158Z,99649.59
2022-12-11T01:15:12.430Z,99652.28
2022-12-11T01:16:16.823Z,99649.47
2022-12-11T01:17:18.572Z,99649.16
2022-12-11T01:18:21.281Z,99645.47
2022-12-11T01:19:24.332Z,99649.72
2022-12-11T01:20:28.729Z,99644.03
2022-12-11T01:21:30.711Z,99640.88
2022-12-11T01:22:33.465Z,99638.91
2022-12-11T01:23:35.270Z,99646.84
2022-12-11T01:24:38.109Z,99636.91
2022-12-11T01:25:40.736Z,99639.47
2022-12-11T01:26:43.548Z,99642.44
2022-12-11T01:27:47.402Z,99640.03
2022-12-11T01:28:53.507Z,99643.59
2022-12-11T01:29:55.273Z,99639.31
2022-12-11T01:30:58.006Z,99643.72
2022-12-11T01:31:59.746Z,99638.34
2022-12-11T01:33:02.574Z,99640.19
2022-12-11T01:34:04.287Z,99640.03
2022-12-11T01:35:09.476Z,99641.59
2022-12-11T01:36:13.949Z,99637.22
2022-12-11T01:37:16.606Z,99632.81
2022-12-11T01:38:18.256Z,99635.81
2022-12-11T01:39:21.150Z,99639.50
2022-12-11T01:40:23.055Z,99634.09
2022-12-11T01:41:25.827Z,99638.66
2022-12-11T01:42:29.427Z,99636.63
2022-12-11T01:43:32.116Z,99645.44
2022-12-11T01:45:27.071Z,99637.88
2022-12-11T01:46:31.247Z,99646.69
2022-12-11T01:47:33.096Z,99643.84
2022-12-11T01:48:40.710Z,99638.28
2022-12-11T01:49:44.008Z,99640.84
2022-12-11T01:50:51.620Z,99639.00
2022-12-11T01:51:55.511Z,99642.56
2022-12-11T01:52:58.440Z,99634.31
2022-12-11T01:54:03.662Z,99639.69
2022-12-11T01:55:07.441Z,99643.97
2022-12-11T01:56:10.213Z,99649.22
2022-12-11T01:57:14.421Z,99648.19
2022-12-11T01:58:17.730Z,99648.91
2022-12-11T01:59:22.196Z,99649.63
2022-12-11T02:00:25.010Z,99644.22
2022-12-11T02:01:32.482Z,99643.06
2022-12-11T02:02:35.228Z,99633.13
2022-12-11T02:03:36.985Z,99650.16
2022-12-11T02:04:40.475Z,99646.47
2022-12-11T02:05:42.232Z,99646.47
2022-12-11T02:06:48.097Z,99649.84
2022-12-11T02:07:52.120Z,99642.06
2022-12-11T02:08:54.832Z,99647.28
2022-12-11T02:09:56.547Z,99644.59
2022-12-11T02:11:07.208Z,99644.75
2022-12-11T02:12:15.955Z,99643.78
2022-12-11T02:13:22.258Z,99640.91
2022-12-11T02:14:30.019Z,99633.53
2022-12-11T02:15:34.411Z,99633.53
2022-12-11T02:16:41.133Z,99635.06
2022-12-11T02:17:46.667Z,99635.78
2022-12-11T02:18:54.352Z,99635.63
2022-12-11T02:20:02.065Z,99633.94
2022-12-11T02:21:09.054Z,99633.94
2022-12-11T02:22:17.087Z,99641.03
2022-12-11T02:23:34.934Z,99640.84
2022-12-11T02:24:49.943Z,99644.25
2022-12-11T02:25:57.239Z,99645.81
2022-12-11T02:27:30.157Z,99646.50
2022-12-11T02:28:36.695Z,99645.34
2022-12-11T02:29:40.660Z,99647.19
2022-12-11T02:30:43.175Z,99648.75
2022-12-11T02:31:48.110Z,99656.72
2022-12-11T02:32:54.058Z,99654.00
2022-12-11T02:34:02.653Z,99655.53
2022-12-11T02:35:09.896Z,99657.38
2022-12-11T02:36:13.476Z,99658.09
2022-12-11T02:37:20.519Z,99662.50
2022-12-11T02:38:28.211Z,99652.53
2022-12-11T02:39:31.387Z,99659.63
2022-12-11T02:40:36.442Z,99661.34
2022-12-11T02:41:39.026Z,99660.16
2022-12-11T02:42:43.857Z,99661.88
2022-12-11T02:43:48.406Z,99659.03
2022-12-11T02:44:52.243Z,99661.59
2022-12-11T02:45:54.466Z,99656.03
2022-12-11T02:46:57.458Z,99659.28
2022-12-11T02:48:02.667Z,99650.34
2022-12-11T02:49:06.665Z,99653.72
2022-12-11T02:50:13.574Z,99646.47
2022-12-11T02:51:16.288Z,99649.31
2022-12-11T02:52:22.300Z,99646.78
2022-12-11T02:53:27.069Z,99640.88
2022-12-11T02:54:33.404Z,99644.44
2022-12-11T02:55:36.683Z,99640.81
2022-12-11T02:56:43.286Z,99631.78
2022-12-11T02:57:48.736Z,99637.94
2022-12-11T02:58:58.678Z,99640.22
2022-12-11T03:00:00.702Z,99636.41
2022-12-11T03:01:03.540Z,99635.16
2022-12-11T03:02:06.312Z,99632.91
2022-12-11T03:03:09.337Z,99643.59
2022-12-11T03:04:11.038Z,99648.13
2022-12-11T03:05:15.389Z,99644.44
2022-12-11T03:06:20.540Z,99657.06
2022-12-11T03:07:26.238Z,99651.66
2022-12-11T03:08:28.032Z,99651.53
2022-12-11T03:09:30.860Z,99652.38
2022-12-11T03:10:32.532Z,99654.78
2022-12-11T03:11:35.233Z,99654.63
2022-12-11T03:12:39.198Z,99655.19
2022-12-11T03:13:42.613Z,99654.88
2022-12-11T03:14:45.799Z,99646.50
2022-12-11T03:15:58.214Z,99653.56
2022-12-11T03:17:05.663Z,99652.72
2022-12-11T03:18:13.465Z,99652.72
2022-12-11T03:19:22.537Z,99648.34
2022-12-11T03:20:32.192Z,99658.44
2022-12-11T03:21:38.482Z,99655.59
2022-12-11T03:22:44.903Z,99649.34
2022-12-11T03:23:51.241Z,99653.56
2022-12-11T03:24:58.416Z,99650.75
2022-12-11T03:26:03.668Z,99646.75
2022-12-11T03:27:11.350Z,99642.75
2022-12-11T03:28:16.766Z,99648.72
2022-12-11T03:29:22.301Z,99650.69
2022-12-11T03:30:26.463Z,99650.69
2022-12-11T03:31:32.611Z,99644.47
2022-12-11T03:32:37.731Z,99647.00
2022-12-11T03:33:42.164Z,99647.00
2022-12-11T03:34:45.945Z,99643.16
2022-12-11T03:35:52.283Z,99648.00
2022-12-11T03:36:56.280Z,99650.00
2022-12-11T03:38:02.904Z,99641.91
2022-12-11T03:39:08.097Z,99652.84
2022-12-11T03:40:15.941Z,99657.41
2022-12-11T03:41:19.430Z,99649.16
2022-12-11T03:42:23.126Z,99653.53
2022-12-11T03:43:26.469Z,99656.94
2022-12-11T03:44:30.098Z,99649.72
2022-12-11T03:45:33.817Z,99654.94
2022-12-11T03:46:39.619Z,99650.38
2022-12-11T03:47:41.636Z,99655.78
2022-12-11T03:48:45.955Z,99656.09
2022-12-11T03:49:48.328Z,99652.53
2022-12-11T03:50:51.710Z,99656.09
2022-12-11T03:51:55.392Z,99652.41
2022-12-11T03:52:58.986Z,99651.09
2022-12-11T03:54:00.875Z,99649.25
2022-12-11T03:55:05.915Z,99645.56
2022-12-11T03:56:09.168Z,99651.66
2022-12-11T03:57:14.371Z,99655.19
2022-12-11T03:58:16.061Z,99655.19
2022-12-11T03:59:18.997Z,99656.91
2022-12-11T04:00:21.410Z,99652.34
2022-12-11T04:01:25.527Z,99651.38
2022-12-11T04:02:27.384Z,99646.66
2022-12-11T04:03:30.038Z,99640.25
2022-12-11T04:04:31.804Z,99648.03
2022-12-11T04:05:34.502Z,99645.91
2022-12-11T04:06:36.155Z,99644.03
2022-12-11T04:07:38.901Z,99641.06
2022-12-11T04:08:40.728Z,99644.63
2022-12-11T04:09:43.364Z,99647.00
2022-12-11T04:10:45.035Z,99637.78
2022-12-11T04:11:47.728Z,99639.44
2022-12-11T04:12:49.408Z,99648.09
2022-12-11T04:14:12.495Z,99648.78
2022-12-11T04:15:14.312Z,99650.50
2022-12-11T04:16:15.991Z,99649.50
2022-12-11T04:17:33.903Z,99645.81
2022-12-11T04:18:54.074Z,99644.09
2022-12-11T04:20:19.644Z,99648.50
2022-12-11T04:21:40.083Z,99648.78
2022-12-11T04:23:00.233Z,99645.69
2022-12-11T04:24:18.313Z,99652.25
2022-12-11T04:25:19.984Z,99649.69
2022-12-11T04:26:22.772Z,99648.69
2022-12-11T04:27:43.259Z,99642.31
2022-12-11T04:28:47.751Z,99642.31
2022-12-11T04:29:49.551Z,99633.38
2022-12-11T04:30:52.344Z,99639.63
2022-12-11T04:31:54.222Z,99637.19
2022-12-11T04:32:58.247Z,99640.22
2022-12-11T04:34:00.039Z,99645.06
2022-12-11T04:35:02.897Z,99640.81
2022-12-11T04:36:05.320Z,99643.97
2022-12-11T04:37:07.971Z,99646.97
2022-12-11T04:38:09.605Z,99648.25
2022-12-11T04:39:12.383Z,99649.41
2022-12-11T04:40:17.066Z,99644.84
2022-12-11T04:41:19.771Z,99644.84
2022-12-11T04:42:21.434Z,99651.81
2022-12-11T04:43:24.199Z,99641.72
2022-12-11T04:44:25.952Z,99649.50
2022-12-11T04:45:28.626Z,99647.50
2022-12-11T04:46:31.400Z,99651.75
2022-12-11T04:47:33.262Z,99644.34
2022-12-11T04:48:37.872Z,99644.03
2022-12-11T04:49:39.519Z,99648.31
2022-12-11T04:50:42.191Z,99647.13
2022-12-11T04:51:44.060Z,99644.16
2022-12-11T04:52:46.735Z,99641.28
2022-12-11T04:53:48.457Z,99638.31
2022-12-11T04:54:51.471Z,99636.47
2022-12-11T04:55:54.379Z,99645.69
2022-12-11T04:56:56.071Z,99647.84
2022-12-11T04:57:58.779Z,99639.91
2022-12-11T04:59:01.120Z,99641.34
2022-12-11T05:00:04.712Z,99636.41
2022-12-11T05:01:08.578Z,99634.16
2022-12-11T05:02:11.286Z,99636.19
2022-12-11T05:03:13.003Z,99630.06
2022-12-11T05:04:17.116Z,99623.53
2022-12-11T05:05:18.902Z,99634.03
2022-12-11T05:06:21.642Z,99635.59
2022-12-11T05:07:23.284Z,99632.56
2022-12-11T05:08:25.963Z,99629.56
2022-12-11T05:09:28.559Z,99624.03
2022-12-11T05:10:31.208Z,99629.09
2022-12-11T05:11:33.508Z,99622.72
2022-12-11T05:12:36.226Z,99622.72
2022-12-11T05:13:38.010Z,99623.03
2022-12-11T05:14:40.669Z,99623.31
2022-12-11T05:15:42.367Z,99625.34
2022-12-11T05:16:45.407Z,99629.16
2022-12-11T05:17:47.099Z,99631.88
2022-12-11T05:18:49.789Z,99631.31
2022-12-11T05:19:52.913Z,99629.94
2022-12-11T05:20:59.579Z,99637.16
2022-12-11T05:22:01.538Z,99630.25
2022-12-11T05:23:04.404Z,99637.63
2022-12-11T05:24:06.708Z,99629.66
2022-12-11T05:25:11.082Z,99622.88
2022-12-11T05:26:16.084Z,99622.34
2022-12-11T05:27:18.771Z,99624.31
2022-12-11T05:28:21.241Z,99623.78
2022-12-11T05:29:23.982Z,99618.84
2022-12-11T05:30:25.670Z,99624.38
2022-12-11T05:31:29.151Z,99617.44
2022-12-11T05:32:30.949Z,99621.00
2022-12-11T05:33:34.290Z,99613.50
2022-12-11T05:34:36.014Z,99615.03
2022-12-11T05:35:40.258Z,99611.66
2022-12-11T05:36:41.960Z,99616.19
2022-12-11T05:37:44.675Z,99620.72
2022-12-11T05:38:46.452Z,99623.41
2022-12-11T05:39:49.161Z,99626.03
2022-12-11T05:40:56.186Z,99617.63
2022-12-11T05:41:59.062Z,99620.19
2022-12-11T05:43:00.708Z,99617.34
2022-12-11T05:44:03.386Z,99619.03
2022-12-11T05:45:06.054Z,99611.78
2022-12-11T05:46:10.413Z,99617.03
2022-12-11T05:47:12.114Z,99610.66
2022-12-11T05:48:14.762Z,99612.34
2022-12-11T05:49:19.896Z,99618.44
2022-12-11T05:50:22.914Z,99616.47
2022-12-11T05:51:26.402Z,99613.44
2022-12-11T05:52:29.090Z,99619.84
2022-12-11T05:53:31.282Z,99623.53
2022-12-11T05:54:33.967Z,99616.47
2022-12-11T05:55:36.136Z,99612.47
2022-12-11T05:56:39.162Z,99615.44
2022-12-11T05:57:40.803Z,99610.03
2022-12-11T05:58:44.481Z,99607.66
2022-12-11T05:59:46.214Z,99603.44
2022-12-11T06:00:49.323Z,99606.13
2022-12-11T06:01:52.226Z,99610.09
2022-12-11T06:02:54.144Z,99605.28
2022-12-11T06:03:58.262Z,99600.03
2022-12-11T06:05:00.035Z,99602.00
2022-12-11T06:06:02.995Z,99600.34
2022-12-11T06:07:07.090Z,99604.16
2022-12-11T06:08:08.962Z,99612.09
2022-12-11T06:09:14.628Z,99597.78
2022-12-11T06:10:16.546Z,99610.25
2022-12-11T06:11:23.726Z,99602.00
2022-12-11T06:12:28.325Z,99595.78
2022-12-11T06:13:30.166Z,99601.19
2022-12-11T06:14:32.891Z,99598.50
2022-12-11T06:15:34.582Z,99591.41
2022-12-11T06:16:37.457Z,99590.53
2022-12-11T06:17:39.158Z,99597.91
2022-12-11T06:18:43.195Z,99593.38
2022-12-11T06:19:44.906Z,99593.50
2022-12-11T06:20:47.546Z,99597.38
2022-12-11T06:21:50.284Z,99599.75
2022-12-11T06:22:53.323Z,99596.22
2022-12-11T06:23:57.314Z,99588.28
2022-12-11T06:24:59.034Z,99598.09
2022-12-11T06:26:01.684Z,99597.06
2022-12-11T06:27:03.363Z,99601.78
2022-12-11T06:28:06.197Z,99600.06
2022-12-11T06:29:12.550Z,99603.91
2022-12-11T06:30:16.519Z,99598.34
2022-12-11T06:31:18.591Z,99602.91
2022-12-11T06:32:22.771Z,99604.59
2022-12-11T06:33:24.460Z,99601.06
2022-12-11T06:34:27.396Z,99600.19
2022-12-11T06:35:29.155Z,99600.06
2022-12-11T06:36:31.813Z,99597.69
2022-12-11T06:37:34.964Z,99589.72
2022-12-11T06:38:39.167Z,99592.88
2022-12-11T06:39:40.900Z,99583.44
2022-12-11T06:40:43.567Z,99591.06
2022-12-11T06:41:45.350Z,99585.81
2022-12-11T06:42:48.136Z,99580.44
2022-12-11T06:43:50.699Z,99576.34
2022-12-11T06:44:53.331Z,99586.84
2022-12-11T06:45:57.973Z,99580.34
2022-12-11T06:47:05.471Z,99582.19
2022-12-11T06:48:07.208Z,99579.94
2022-12-11T06:49:09.898Z,99587.31
2022-12-11T06:50:11.598Z,99583.22
2022-12-11T06:51:16.046Z,99580.66
2022-12-11T06:52:18.669Z,99579.97
2022-12-11T06:53:21.477Z,99574.84
2022-12-11T06:54:27.122Z,99581.94
2022-12-11T06:55:29.819Z,99578.97
2022-12-11T06:56:31.521Z,99580.81
2022-12-11T06:57:34.887Z,99581.50
2022-12-11T06:58:37.833Z,99578.13
2022-12-11T06:59:40.643Z,99583.22
2022-12-11T07:00:42.538Z,99578.38
2022-12-11T07:01:45.269Z,99581.66
2022-12-11T07:02:46.946Z,99585.03
2022-12-11T07:03:49.848Z,99590.16
2022-12-11T07:04:55.081Z,99585.16
2022-12-11T07:06:01.625Z,99590.94
2022-12-11T07:07:03.348Z,99583.44
2022-12-11T07:08:07.471Z,99585.69
2022-12-11T07:09:10.167Z,99590.63
2022-12-11T07:10:14.233Z,99591.03
2022-12-11T07:11:17.823Z,99591.72
2022-12-11T07:12:19.584Z,99596.09
2022-12-11T07:13:22.218Z,99594.25
2022-12-11T07:14:24.006Z,99587.03
2022-12-11T07:15:26.670Z,99590.59
2022-12-11T07:16:28.582Z,99591.97
2022-12-11T07:17:31.955Z,99593.50
2022-12-11T07:18:33.640Z,99604.00
2022-12-11T07:19:36.378Z,99593.78
2022-12-11T07:20:38.082Z,99590.63
2022-12-11T07:21:40.924Z,99597.41
2022-12-11T07:22:46.402Z,99591.56
2022-12-11T07:23:50.343Z,99591.97
2022-12-11T07:24:52.092Z,99596.91
2022-12-11T07:25:56.832Z,99595.59
2022-12-11T07:26:58.668Z,99589.78
2022-12-11T07:28:01.533Z,99595.56
2022-12-11T07:29:04.290Z,99597.97
2022-12-11T07:30:07.198Z,99598.66
2022-12-11T07:31:12.054Z,99601.06
2022-12-11T07:32:14.465Z,99605.47
2022-12-11T07:33:17.355Z,99595.34
2022-12-11T07:34:19.152Z,99599.75
2022-12-11T07:35:21.831Z,99600.59
2022-12-11T07:36:23.912Z,99600.47
2022-12-11T07:37:26.764Z,99601.13
2022-12-11T07:38:28.519Z,99603.84
2022-12-11T07:39:31.188Z,99603.84
2022-12-11T07:40:34.526Z,99607.38
2022-12-11T07:41:38.867Z,99611.78
2022-12-11T07:42:45.976Z,99607.25
2022-12-11T07:43:49.169Z,99615.03
2022-12-11T07:44:50.818Z,99615.72
2022-12-11T07:45:53.511Z,99610.03
2022-12-11T07:46:55.233Z,99614.41
2022-12-11T07:47:57.915Z,99608.69
2022-12-11T07:49:00.887Z,99616.50
2022-12-11T07:50:03.584Z,99609.09
2022-12-11T07:51:09.641Z,99623.91
2022-12-11T07:52:12.469Z,99609.88
2022-12-11T07:53:14.405Z,99612.72
2022-12-11T07:54:17.408Z,99622.78
2022-12-11T07:55:19.117Z,99612.63
2022-12-11T07:56:22.097Z,99619.03
2022-12-11T07:57:26.188Z,99617.63
2022-12-11T07:58:28.205Z,99619.63
2022-12-11T07:59:31.035Z,99621.06
2022-12-11T08:00:32.879Z,99615.16
2022-12-11T08:01:36.863Z,99621.69
2022-12-11T08:02:39.665Z,99622.69
2022-12-11T08:03:42.147Z,99621.13
2022-12-11T08:04:44.872Z,99623.28
2022-12-11T08:05:48.351Z,99627.16
2022-12-11T08:06:51.000Z,99623.59
2022-12-11T08:07:53.736Z,99622.56
2022-12-11T08:08:55.529Z,99623.44
2022-12-11T08:09:58.283Z,99625.97
2022-12-11T08:11:00.947Z,99618.03
2022-12-11T08:12:03.680Z,99618.22
2022-12-11T08:13:06.722Z,99620.91
2022-12-11T08:14:09.626Z,99621.59
2022-12-11T08:15:11.800Z,99618.75
2022-12-11T08:16:15.993Z,99624.00
2022-12-11T08:17:17.725Z,99617.59
2022-12-11T08:18:20.445Z,99620.00
2022-12-11T08:19:22.126Z,99616.97
2022-12-11T08:20:24.928Z,99614.44
2022-12-11T08:21:27.791Z,99623.09
2022-12-11T08:22:30.421Z,99621.94
2022-12-11T08:23:32.150Z,99617.69
2022-12-11T08:24:35.014Z,99621.25
2022-12-11T08:25:36.681Z,99621.06
2022-12-11T08:26:39.373Z,99620.94
2022-12-11T08:27:41.078Z,99625.47
2022-12-11T08:28:45.170Z,99631.19
2022-12-11T08:29:47.894Z,99630.31
2022-12-11T08:30:49.657Z,99622.25
2022-12-11T08:31:52.363Z,99628.31
2022-12-11T08:32:54.098Z,99625.47
2022-12-11T08:33:57.541Z,99631.56
2022-12-11T08:35:00.262Z,99629.56
2022-12-11T08:36:02.732Z,99620.78
2022-12-11T08:37:05.453Z,99636.81
2022-12-11T08:38:07.152Z,99629.75
2022-12-11T08:39:09.845Z,99630.41
2022-12-11T08:40:12.388Z,99625.72
2022-12-11T08:41:17.278Z,99627.44
2022-12-11T08:42:19.967Z,99629.28
2022-12-11T08:43:21.665Z,99631.13
2022-12-11T08:44:27.129Z,99633.66
2022-12-11T08:45:28.939Z,99639.03
2022-12-11T08:46:33.606Z,99629.28
2022-12-11T08:47:35.335Z,99638.66
2022-12-11T08:48:42.101Z,99635.41
2022-12-11T08:49:44.859Z,99636.56
2022-12-11T08:50:46.540Z,99627.78
2022-12-11T08:51:49.237Z,99627.50
2022-12-11T08:52:51.027Z,99632.72
2022-12-11T08:53:56.142Z,99630.00
2022-12-11T08:54:58.237Z,99631.88
2022-12-11T08:56:04.970Z,99627.50
2022-12-11T08:57:06.659Z,99630.19
2022-12-11T08:58:09.396Z,99623.38
2022-12-11T08:59:11.123Z,99623.09
2022-12-11T09:00:16.409Z,99619.53
2022-12-11T09:01:21.551Z,99621.25
2022-12-11T09:02:24.397Z,99623.22
2022-12-11T09:03:26.108Z,99620.69
2022-12-11T09:04:29.134Z,99622.69
2022-12-11T09:05:31.131Z,99613.22
2022-12-11T09:06:34.277Z,99618.28
2022-12-11T09:07:37.034Z,99613.88
2022-12-11T09:08:40.141Z,99608.50
2022-12-11T09:09:42.798Z,99621.97
2022-12-11T09:10:44.528Z,99618.28
2022-12-11T09:11:47.274Z,99619.47
2022-12-11T09:12:48.930Z,99618.44
2022-12-11T09:13:51.675Z,99621.84
2022-12-11T09:14:53.434Z,99620.84
2022-12-11T09:15:57.588Z,99616.97
2022-12-11T09:17:00.280Z,99620.22
2022-12-11T09:18:02.005Z,99631.00
2022-12-11T09:19:04.847Z,99620.94
2022-12-11T09:20:08.727Z,99620.22
2022-12-11T09:21:13.444Z,99618.69
2022-12-11T09:22:16.175Z,99616.00
2022-12-11T09:23:17.868Z,99622.53
2022-12-11T09:24:20.619Z,99619.69
2022-12-11T09:25:23.284Z,99619.41
2022-12-11T09:26:26.412Z,99618.94
2022-12-11T09:27:29.233Z,99619.75
2022-12-11T09:28:32.489Z,99619.09
2022-12-11T09:29:36.210Z,99620.22
2022-12-11T09:30:37.926Z,99621.53
2022-12-11T09:31:42.108Z,99618.69
2022-12-11T09:32:43.850Z,99626.78
2022-12-11T09:33:47.054Z,99627.78
2022-12-11T09:34:51.594Z,99620.09
2022-12-11T09:35:59.316Z,99618.22
2022-12-11T09:37:01.961Z,99617.25
2022-12-11T09:38:03.987Z,99615.41
2022-12-11T09:39:08.697Z,99610.84
2022-12-11T09:40:12.504Z,99616.25
2022-12-11T09:41:30.955Z,99612.69
2022-12-11T09:42:50.825Z,99612.38
2022-12-11T09:44:00.531Z,99607.00
2022-12-11T09:45:05.023Z,99612.06
2022-12-11T09:46:11.612Z,99607.38
2022-12-11T09:47:27.712Z,99610.22
2022-12-11T09:48:30.772Z,99603.53
2022-12-11T09:49:40.368Z,99606.59
2022-12-11T09:50:42.441Z,99607.19
2022-12-11T09:51:48.759Z,99607.72
2022-12-11T09:53:01.239Z,99604.03
2022-12-11T09:54:04.081Z,99606.41
2022-12-11T09:55:14.458Z,99607.56
2022-12-11T09:56:18.445Z,99610.41
2022-12-11T09:57:35.679Z,99603.03
2022-12-11T09:58:40.884Z,99605.53
2022-12-11T09:59:53.307Z,99600.16
2022-12-11T10:00:59.083Z,99601.53
2022-12-11T10:02:05.327Z,99601.25
2022-12-11T10:03:22.989Z,99605.47
2022-12-11T10:04:38.576Z,99605.31
2022-12-11T10:05:47.566Z,99610.41
2022-12-11T10:06:59.144Z,99609.09
2022-12-11T10:08:05.929Z,99610.66
2022-12-11T10:09:15.538Z,99614.59
2022-12-11T10:10:24.673Z,99614.13
2022-12-11T10:11:43.948Z,99622.03
2022-12-11T10:12:50.815Z,99617.50
2022-12-11T10:13:59.037Z,99616.50
2022-12-11T10:15:16.061Z,99619.06
2022-12-11T10:16:28.390Z,99619.19
2022-12-11T10:17:33.125Z,99616.81
2022-12-11T10:18:37.588Z,99613.28
2022-12-11T10:19:42.226Z,99614.41
2022-12-11T10:20:45.298Z,99612.56
2022-12-11T10:21:48.260Z,99610.56
2022-12-11T10:22:52.030Z,99606.03
2022-12-11T10:23:58.203Z,99609.41
2022-12-11T10:25:11.615Z,99609.09
2022-12-11T10:26:26.143Z,99603.38
2022-12-11T10:27:32.155Z,99601.00
2022-12-11T10:28:35.535Z,99598.13
2022-12-11T10:29:37.229Z,99604.38
2022-12-11T10:30:42.995Z,99591.59
2022-12-11T10:31:51.946Z,99600.22
2022-12-11T10:32:57.882Z,99589.66
2022-12-11T10:34:03.144Z,99596.28
2022-12-11T10:35:06.337Z,99593.78
2022-12-11T10:36:09.712Z,99594.16
2022-12-11T10:37:11.425Z,99595.53
2022-12-11T10:38:16.627Z,99589.81
2022-12-11T10:39:21.607Z,99584.81
2022-12-11T10:40:25.725Z,99589.88
2022-12-11T10:41:36.444Z,99580.28
2022-12-11T10:42:44.071Z,99580.81
2022-12-11T10:43:49.662Z,99578.81
2022-12-11T10:44:59.261Z,99584.03
2022-12-11T10:46:02.214Z,99582.19
2022-12-11T10:47:07.498Z,99576.78
2022-12-11T10:48:12.522Z,99578.81
2022-12-11T10:49:26.675Z,99575.06
2022-12-11T10:50:29.343Z,99571.38
2022-12-11T10:51:37.449Z,99571.91
2022-12-11T10:52:45.450Z,99567.03
2022-12-11T10:53:51.728Z,99570.25
2022-12-11T10:54:57.369Z,99568.91
2022-12-11T10:56:00.957Z,99570.09
2022-12-11T10:57:04.997Z,99567.41
2022-12-11T10:58:07.056Z,99567.56
2022-12-11T10:59:19.836Z,99569.41
2022-12-11T11:00:37.008Z,99564.69
2022-12-11T11:01:39.843Z,99569.09
2022-12-11T11:02:42.749Z,99568.06
2022-12-11T11:03:58.845Z,99563.84
2022-12-11T11:05:14.300Z,99564.69
2022-12-11T11:06:18.855Z,99569.41
2022-12-11T11:07:24.528Z,99564.16
2022-12-11T11:08:27.796Z,99558.41
2022-12-11T11:09:32.390Z,99562.97
2022-12-11T11:10:34.345Z,99556.72
2022-12-11T11:11:38.463Z,99558.06
2022-12-11T11:12:43.428Z,99556.03
2022-12-11T11:13:45.352Z,99555.88
2022-12-11T11:14:48.149Z,99551.47
2022-12-11T11:15:50.313Z,99554.19
2022-12-11T11:16:55.836Z,99553.34
2022-12-11T11:18:02.311Z,99545.06
2022-12-11T11:19:05.324Z,99545.94
2022-12-11T11:20:14.808Z,99541.53
2022-12-11T11:21:18.171Z,99550.19
2022-12-11T11:22:21.114Z,99536.31
2022-12-11T11:23:25.086Z,99547.66
2022-12-11T11:24:35.053Z,99536.34
2022-12-11T11:25:37.771Z,99538.41
2022-12-11T11:27:11.691Z,99535.72
2022-12-11T11:28:03.890Z,99545.53
2022-12-11T11:29:06.932Z,99539.13
2022-12-11T11:30:19.371Z,99543.19
2022-12-11T11:31:24.155Z,99542.69
2022-12-11T11:32:29.948Z,99539.81
2022-12-11T11:33:34.666Z,99540.34
2022-12-11T11:34:37.362Z,99542.75
2022-12-11T11:35:52.125Z,99539.53
2022-12-11T11:37:01.004Z,99538.53
2022-12-11T11:38:06.480Z,99538.38
2022-12-11T11:39:19.114Z,99538.19
2022-12-11T11:40:25.708Z,99527.38
2022-12-11T11:41:30.783Z,99522.97
2022-12-11T11:42:41.660Z,99530.28
2022-12-11T11:43:46.456Z,99532.13
2022-12-11T11:44:58.052Z,99531.09
2022-12-11T11:46:03.700Z,99520.59
2022-12-11T11:47:12.069Z,99525.66
2022-12-11T11:48:25.986Z,99526.81
2022-12-11T11:49:37.175Z,99517.34
2022-12-11T11:50:45.827Z,99523.22
2022-12-11T11:51:51.294Z,99521.19
2022-12-11T11:52:57.375Z,99521.50
2022-12-11T11:54:02.997Z,99520.84
2022-12-11T11:55:10.327Z,99517.28
2022-12-11T11:56:20.062Z,99519.97
2022-12-11T11:57:29.232Z,99521.69
2022-12-11T11:58:38.528Z,99518.66
2022-12-11T11:59:44.121Z,99522.72
2022-12-11T12:00:45.782Z,99521.69
2022-12-11T12:01:48.976Z,99519.16
2022-12-11T12:02:54.987Z,99518.16
2022-12-11T12:03:58.135Z,99513.44
2022-12-11T12:04:59.946Z,99522.22
2022-12-11T12:06:14.722Z,99521.91
2022-12-11T12:07:28.771Z,99517.16
2022-12-11T12:08:43.035Z,99516.00
2022-12-11T12:09:51.907Z,99519.88
2022-12-11T12:11:02.585Z,99527.69
2022-12-11T12:12:13.598Z,99517.00
2022-12-11T12:13:48.561Z,99516.16
2022-12-11T12:15:03.629Z,99519.03
2022-12-11T12:16:29.480Z,99516.31
2022-12-11T12:17:44.064Z,99518.16
2022-12-11T12:18:51.058Z,99515.47
2022-12-11T12:20:03.394Z,99512.75
2022-12-11T12:21:25.473Z,99510.25
2022-12-11T12:22:37.110Z,99515.81
2022-12-11T12:23:49.557Z,99511.03
2022-12-11T12:25:00.386Z,99512.22
2022-12-11T12:26:08.507Z,99516.63
2022-12-11T12:27:50.001Z,99514.94
2022-12-11T12:28:45.590Z,99512.38
2022-12-11T12:29:54.117Z,99517.78
2022-12-11T12:31:08.487Z,99513.38
2022-12-11T12:32:19.173Z,99513.38
2022-12-11T12:33:28.016Z,99509.69
2022-12-11T12:34:43.564Z,99506.97
2022-12-11T12:35:52.750Z,99513.22
2022-12-11T12:37:01.511Z,99509.69
2022-12-11T12:38:11.499Z,99507.97
2022-12-11T12:39:21.234Z,99505.47
2022-12-11T12:40:30.311Z,99502.22
2022-12-11T12:41:40.427Z,99507.47